sensor_id;sensor_type;location;lat;lon;timestamp;temperature;humidity
3846;DHT22;1938;50.812;7.738;2023-02-01T00:01:42;4.20;99.90
3846;DHT22;1938;50.812;7.738;2023-02-01T00:04:08;4.20;99.90
3846;DHT22;1938;50.812;7.738;2023-02-01T00:06:33;4.20;99.90
3846;DHT22;1938;50.812;7.738;2023-02-01T00:08:59;4.20;99.90
3846;DHT22;1938;50.812;7.738;2023-02-01T00:11:25;4.20;99.90
3846;DHT22;1938;50.812;7.738;2023-02-01T00:13:50;4.20;99.90
3846;DHT22;1938;50.812;7.738;2023-02-01T00:16:17;4.20;99.90
3846;DHT22;1938;50.812;7.738;2023-02-01T00:18:44;4.20;99.90
3846;DHT22;1938;50.812;7.738;2023-02-01T00:21:15;4.20;99.90
3846;DHT22;1938;50.812;7.738;2023-02-01T00:23:41;4.20;99.90
3846;DHT22;1938;50.812;7.738;2023-02-01T00:26:15;4.20;99.90
3846;DHT22;1938;50.812;7.738;2023-02-01T00:28:41;4.20;99.90
3846;DHT22;1938;50.812;7.738;2023-02-01T00:31:07;4.20;99.90
3846;DHT22;1938;50.812;7.738;2023-02-01T00:33:32;4.20;99.90
3846;DHT22;1938;50.812;7.738;2023-02-01T00:35:59;4.20;99.90
3846;DHT22;1938;50.812;7.738;2023-02-01T00:38:26;4.20;99.90
3846;DHT22;1938;50.812;7.738;2023-02-01T00:40:52;4.20;99.90
3846;DHT22;1938;50.812;7.738;2023-02-01T00:43:18;4.20;99.90
3846;DHT22;1938;50.812;7.738;2023-02-01T00:45:46;4.20;99.90
3846;DHT22;1938;50.812;7.738;2023-02-01T00:48:12;4.20;99.90
3846;DHT22;1938;50.812;7.738;2023-02-01T00:50:42;4.20;99.90
3846;DHT22;1938;50.812;7.738;2023-02-01T00:53:09;4.20;99.90
3846;DHT22;1938;50.812;7.738;2023-02-01T00:55:35;4.10;99.90
3846;DHT22;1938;50.812;7.738;2023-02-01T00:58:01;4.10;99.90
3846;DHT22;1938;50.812;7.738;2023-02-01T01:00:27;4.10;99.90
3846;DHT22;1938;50.812;7.738;2023-02-01T01:02:52;4.10;99.90
3846;DHT22;1938;50.812;7.738;2023-02-01T01:05:18;4.10;99.90
3846;DHT22;1938;50.812;7.738;2023-02-01T01:07:44;4.10;99.90
3846;DHT22;1938;50.812;7.738;2023-02-01T01:10:11;4.20;99.90
3846;DHT22;1938;50.812;7.738;2023-02-01T01:12:36;4.20;99.90
3846;DHT22;1938;50.812;7.738;2023-02-01T01:15:02;4.20;99.90
3846;DHT22;1938;50.812;7.738;2023-02-01T01:17:27;4.20;99.90
3846;DHT22;1938;50.812;7.738;2023-02-01T01:19:53;4.20;99.90
3846;DHT22;1938;50.812;7.738;2023-02-01T01:22:18;4.20;99.90
3846;DHT22;1938;50.812;7.738;2023-02-01T01:24:44;4.20;99.90
3846;DHT22;1938;50.812;7.738;2023-02-01T01:27:09;4.30;99.90
3846;DHT22;1938;50.812;7.738;2023-02-01T01:29:36;4.30;99.90
3846;DHT22;1938;50.812;7.738;2023-02-01T01:32:02;4.30;99.90
3846;DHT22;1938;50.812;7.738;2023-02-01T01:34:28;4.30;99.90
3846;DHT22;1938;50.812;7.738;2023-02-01T01:36:54;4.30;99.90
3846;DHT22;1938;50.812;7.738;2023-02-01T01:39:19;4.30;99.90
3846;DHT22;1938;50.812;7.738;2023-02-01T01:41:45;4.30;99.90
3846;DHT22;1938;50.812;7.738;2023-02-01T01:47:14;4.30;99.90
3846;DHT22;1938;50.812;7.738;2023-02-01T01:49:40;4.30;99.90
3846;DHT22;1938;50.812;7.738;2023-02-01T01:52:06;4.30;99.90
3846;DHT22;1938;50.812;7.738;2023-02-01T01:54:33;4.30;99.90
3846;DHT22;1938;50.812;7.738;2023-02-01T01:57:09;4.30;99.90
3846;DHT22;1938;50.812;7.738;2023-02-01T01:59:38;4.30;99.90
3846;DHT22;1938;50.812;7.738;2023-02-01T02:02:05;4.30;99.90
3846;DHT22;1938;50.812;7.738;2023-02-01T02:04:32;4.30;99.90
3846;DHT22;1938;50.812;7.738;2023-02-01T02:07:02;4.20;99.90
3846;DHT22;1938;50.812;7.738;2023-02-01T02:09:29;4.20;99.90
3846;DHT22;1938;50.812;7.738;2023-02-01T02:11:54;4.20;99.90
3846;DHT22;1938;50.812;7.738;2023-02-01T02:14:23;4.20;99.90
3846;DHT22;1938;50.812;7.738;2023-02-01T02:22:32;4.10;99.90
3846;DHT22;1938;50.812;7.738;2023-02-01T02:25:24;4.10;99.90
3846;DHT22;1938;50.812;7.738;2023-02-01T02:33:48;3.90;99.90
3846;DHT22;1938;50.812;7.738;2023-02-01T02:36:22;3.80;99.90
3846;DHT22;1938;50.812;7.738;2023-02-01T02:38:52;3.80;99.90
3846;DHT22;1938;50.812;7.738;2023-02-01T02:47:24;3.70;99.90
3846;DHT22;1938;50.812;7.738;2023-02-01T02:53:10;3.70;99.90
3846;DHT22;1938;50.812;7.738;2023-02-01T02:55:55;3.70;99.90
3846;DHT22;1938;50.812;7.738;2023-02-01T02:58:41;3.70;99.90
3846;DHT22;1938;50.812;7.738;2023-02-01T03:01:28;3.70;99.90
3846;DHT22;1938;50.812;7.738;2023-02-01T03:04:13;3.70;99.90
3846;DHT22;1938;50.812;7.738;2023-02-01T03:06:46;3.70;99.90
3846;DHT22;1938;50.812;7.738;2023-02-01T03:09:33;3.70;99.90
3846;DHT22;1938;50.812;7.738;2023-02-01T03:12:07;3.70;99.90
3846;DHT22;1938;50.812;7.738;2023-02-01T03:14:59;3.70;99.90
3846;DHT22;1938;50.812;7.738;2023-02-01T03:17:31;3.60;99.90
3846;DHT22;1938;50.812;7.738;2023-02-01T03:20:01;3.60;99.90
3846;DHT22;1938;50.812;7.738;2023-02-01T03:22:29;3.70;99.90
3846;DHT22;1938;50.812;7.738;2023-02-01T03:25:06;3.70;99.90
3846;DHT22;1938;50.812;7.738;2023-02-01T03:27:37;3.70;99.90
3846;DHT22;1938;50.812;7.738;2023-02-01T03:32:36;3.70;99.90
3846;DHT22;1938;50.812;7.738;2023-02-01T03:35:40;3.70;99.90
3846;DHT22;1938;50.812;7.738;2023-02-01T03:38:22;3.70;99.90
3846;DHT22;1938;50.812;7.738;2023-02-01T03:41:12;3.70;99.90
3846;DHT22;1938;50.812;7.738;2023-02-01T03:46:19;3.70;99.90
3846;DHT22;1938;50.812;7.738;2023-02-01T03:48:46;3.70;99.90
3846;DHT22;1938;50.812;7.738;2023-02-01T03:51:13;3.70;99.90
3846;DHT22;1938;50.812;7.738;2023-02-01T03:53:40;3.70;99.90
3846;DHT22;1938;50.812;7.738;2023-02-01T03:56:08;3.70;99.90
3846;DHT22;1938;50.812;7.738;2023-02-01T03:58:36;3.70;99.90
3846;DHT22;1938;50.812;7.738;2023-02-01T04:01:02;3.60;99.90
3846;DHT22;1938;50.812;7.738;2023-02-01T04:03:28;3.70;99.90
3846;DHT22;1938;50.812;7.738;2023-02-01T04:05:54;3.70;99.90
3846;DHT22;1938;50.812;7.738;2023-02-01T04:08:21;3.70;99.90
3846;DHT22;1938;50.812;7.738;2023-02-01T04:10:46;3.70;99.90
3846;DHT22;1938;50.812;7.738;2023-02-01T04:13:12;3.70;99.90
3846;DHT22;1938;50.812;7.738;2023-02-01T04:15:38;3.60;99.90
3846;DHT22;1938;50.812;7.738;2023-02-01T04:18:04;3.50;99.90
3846;DHT22;1938;50.812;7.738;2023-02-01T04:20:31;3.50;99.90
3846;DHT22;1938;50.812;7.738;2023-02-01T04:22:57;3.50;99.90
3846;DHT22;1938;50.812;7.738;2023-02-01T04:25:23;3.50;99.90
3846;DHT22;1938;50.812;7.738;2023-02-01T04:27:49;3.50;99.90
3846;DHT22;1938;50.812;7.738;2023-02-01T04:30:14;3.50;99.90
3846;DHT22;1938;50.812;7.738;2023-02-01T04:32:40;3.50;99.90
3846;DHT22;1938;50.812;7.738;2023-02-01T04:35:07;3.40;99.90
3846;DHT22;1938;50.812;7.738;2023-02-01T04:37:33;3.40;99.90
3846;DHT22;1938;50.812;7.738;2023-02-01T04:39:59;3.40;99.90
3846;DHT22;1938;50.812;7.738;2023-02-01T04:42:25;3.50;99.90
3846;DHT22;1938;50.812;7.738;2023-02-01T04:44:50;3.50;99.90
3846;DHT22;1938;50.812;7.738;2023-02-01T04:47:16;3.50;99.90
3846;DHT22;1938;50.812;7.738;2023-02-01T04:49:42;3.40;99.90
3846;DHT22;1938;50.812;7.738;2023-02-01T04:52:09;3.40;99.90
3846;DHT22;1938;50.812;7.738;2023-02-01T04:54:34;3.50;99.90
3846;DHT22;1938;50.812;7.738;2023-02-01T04:57:00;3.60;99.90
3846;DHT22;1938;50.812;7.738;2023-02-01T04:59:25;3.70;99.90
3846;DHT22;1938;50.812;7.738;2023-02-01T05:01:52;3.60;99.90
3846;DHT22;1938;50.812;7.738;2023-02-01T05:04:18;3.50;99.90
3846;DHT22;1938;50.812;7.738;2023-02-01T05:06:44;3.50;99.90
3846;DHT22;1938;50.812;7.738;2023-02-01T05:09:10;3.50;99.90
3846;DHT22;1938;50.812;7.738;2023-02-01T05:11:37;3.40;99.90
3846;DHT22;1938;50.812;7.738;2023-02-01T05:14:21;3.30;99.90
3846;DHT22;1938;50.812;7.738;2023-02-01T05:16:47;3.30;99.90
3846;DHT22;1938;50.812;7.738;2023-02-01T05:19:13;3.30;99.90
3846;DHT22;1938;50.812;7.738;2023-02-01T05:21:38;3.30;99.90
3846;DHT22;1938;50.812;7.738;2023-02-01T05:24:04;3.30;99.90
3846;DHT22;1938;50.812;7.738;2023-02-01T05:26:40;3.40;99.90
3846;DHT22;1938;50.812;7.738;2023-02-01T05:29:06;3.40;99.90
3846;DHT22;1938;50.812;7.738;2023-02-01T05:31:32;3.50;99.90
3846;DHT22;1938;50.812;7.738;2023-02-01T05:33:58;3.50;99.90
3846;DHT22;1938;50.812;7.738;2023-02-01T05:36:24;3.50;99.90
3846;DHT22;1938;50.812;7.738;2023-02-01T05:38:49;3.50;99.90
3846;DHT22;1938;50.812;7.738;2023-02-01T05:41:15;3.60;99.90
3846;DHT22;1938;50.812;7.738;2023-02-01T05:43:41;3.60;99.90
3846;DHT22;1938;50.812;7.738;2023-02-01T05:46:10;3.60;99.90
3846;DHT22;1938;50.812;7.738;2023-02-01T05:48:41;3.60;99.90
3846;DHT22;1938;50.812;7.738;2023-02-01T05:51:07;3.60;99.90
3846;DHT22;1938;50.812;7.738;2023-02-01T05:53:33;3.70;99.90
3846;DHT22;1938;50.812;7.738;2023-02-01T05:55:59;3.70;99.90
3846;DHT22;1938;50.812;7.738;2023-02-01T05:58:24;3.80;99.90
3846;DHT22;1938;50.812;7.738;2023-02-01T06:00:50;3.80;99.90
3846;DHT22;1938;50.812;7.738;2023-02-01T06:03:16;3.80;99.90
3846;DHT22;1938;50.812;7.738;2023-02-01T06:05:46;3.80;99.90
3846;DHT22;1938;50.812;7.738;2023-02-01T06:08:12;3.80;99.90
3846;DHT22;1938;50.812;7.738;2023-02-01T06:10:38;3.70;99.90
3846;DHT22;1938;50.812;7.738;2023-02-01T06:13:04;3.80;99.90
3846;DHT22;1938;50.812;7.738;2023-02-01T06:15:30;3.80;99.90
3846;DHT22;1938;50.812;7.738;2023-02-01T06:17:56;3.80;99.90
3846;DHT22;1938;50.812;7.738;2023-02-01T06:20:22;3.80;99.90
3846;DHT22;1938;50.812;7.738;2023-02-01T06:22:48;3.80;99.90
3846;DHT22;1938;50.812;7.738;2023-02-01T06:25:14;3.80;99.90
3846;DHT22;1938;50.812;7.738;2023-02-01T06:27:42;3.80;99.90
3846;DHT22;1938;50.812;7.738;2023-02-01T06:30:10;3.80;99.90
3846;DHT22;1938;50.812;7.738;2023-02-01T06:32:39;3.80;99.90
3846;DHT22;1938;50.812;7.738;2023-02-01T06:35:09;3.80;99.90
3846;DHT22;1938;50.812;7.738;2023-02-01T06:37:42;3.70;99.90
3846;DHT22;1938;50.812;7.738;2023-02-01T06:40:08;3.80;99.90
3846;DHT22;1938;50.812;7.738;2023-02-01T06:42:34;3.80;99.90
3846;DHT22;1938;50.812;7.738;2023-02-01T06:44:59;3.70;99.90
3846;DHT22;1938;50.812;7.738;2023-02-01T06:47:25;3.70;99.90
3846;DHT22;1938;50.812;7.738;2023-02-01T06:49:51;3.70;99.90
3846;DHT22;1938;50.812;7.738;2023-02-01T06:52:17;3.80;99.90
3846;DHT22;1938;50.812;7.738;2023-02-01T06:54:42;3.80;99.90
3846;DHT22;1938;50.812;7.738;2023-02-01T06:57:09;3.90;99.90
3846;DHT22;1938;50.812;7.738;2023-02-01T06:59:34;4.00;99.90
3846;DHT22;1938;50.812;7.738;2023-02-01T07:02:00;4.10;99.90
3846;DHT22;1938;50.812;7.738;2023-02-01T07:04:25;4.10;99.90
3846;DHT22;1938;50.812;7.738;2023-02-01T07:06:52;4.20;99.90
3846;DHT22;1938;50.812;7.738;2023-02-01T07:09:17;4.20;99.90
3846;DHT22;1938;50.812;7.738;2023-02-01T07:11:43;4.20;99.90
3846;DHT22;1938;50.812;7.738;2023-02-01T07:14:12;4.20;99.90
3846;DHT22;1938;50.812;7.738;2023-02-01T07:16:39;4.20;99.90
3846;DHT22;1938;50.812;7.738;2023-02-01T07:19:05;4.20;99.90
3846;DHT22;1938;50.812;7.738;2023-02-01T07:21:30;4.30;99.90
3846;DHT22;1938;50.812;7.738;2023-02-01T07:23:56;4.30;99.90
3846;DHT22;1938;50.812;7.738;2023-02-01T07:26:22;4.30;99.90
3846;DHT22;1938;50.812;7.738;2023-02-01T07:28:47;4.30;99.90
3846;DHT22;1938;50.812;7.738;2023-02-01T07:31:18;4.20;99.90
3846;DHT22;1938;50.812;7.738;2023-02-01T07:33:46;4.30;99.90
3846;DHT22;1938;50.812;7.738;2023-02-01T07:36:15;4.20;99.90
3846;DHT22;1938;50.812;7.738;2023-02-01T07:38:42;4.30;99.90
3846;DHT22;1938;50.812;7.738;2023-02-01T07:41:08;4.20;99.90
3846;DHT22;1938;50.812;7.738;2023-02-01T07:43:35;4.20;99.90
3846;DHT22;1938;50.812;7.738;2023-02-01T07:46:02;4.20;99.90
3846;DHT22;1938;50.812;7.738;2023-02-01T07:48:28;4.20;99.90
3846;DHT22;1938;50.812;7.738;2023-02-01T07:50:58;4.20;99.90
3846;DHT22;1938;50.812;7.738;2023-02-01T07:53:26;4.20;99.90
3846;DHT22;1938;50.812;7.738;2023-02-01T07:55:51;4.20;99.90
3846;DHT22;1938;50.812;7.738;2023-02-01T07:58:17;4.20;99.90
3846;DHT22;1938;50.812;7.738;2023-02-01T08:00:43;4.20;99.90
3846;DHT22;1938;50.812;7.738;2023-02-01T08:03:26;4.20;99.90
3846;DHT22;1938;50.812;7.738;2023-02-01T08:05:56;4.20;99.90
3846;DHT22;1938;50.812;7.738;2023-02-01T08:08:22;4.20;99.90
3846;DHT22;1938;50.812;7.738;2023-02-01T08:10:48;4.00;99.90
3846;DHT22;1938;50.812;7.738;2023-02-01T08:13:14;4.00;99.90
3846;DHT22;1938;50.812;7.738;2023-02-01T08:15:40;3.80;99.90
3846;DHT22;1938;50.812;7.738;2023-02-01T08:18:06;3.80;99.90
3846;DHT22;1938;50.812;7.738;2023-02-01T08:20:33;3.90;99.90
3846;DHT22;1938;50.812;7.738;2023-02-01T08:23:00;3.90;99.90
3846;DHT22;1938;50.812;7.738;2023-02-01T08:25:26;3.90;99.90
3846;DHT22;1938;50.812;7.738;2023-02-01T08:27:53;3.90;99.90
3846;DHT22;1938;50.812;7.738;2023-02-01T08:30:20;4.00;99.90
3846;DHT22;1938;50.812;7.738;2023-02-01T08:32:46;3.90;99.90
3846;DHT22;1938;50.812;7.738;2023-02-01T08:35:12;4.00;99.90
3846;DHT22;1938;50.812;7.738;2023-02-01T08:37:37;3.90;99.90
3846;DHT22;1938;50.812;7.738;2023-02-01T08:40:05;4.00;99.90
3846;DHT22;1938;50.812;7.738;2023-02-01T08:42:31;4.00;99.90
3846;DHT22;1938;50.812;7.738;2023-02-01T08:45:15;4.00;99.90
3846;DHT22;1938;50.812;7.738;2023-02-01T08:47:41;4.00;99.90
3846;DHT22;1938;50.812;7.738;2023-02-01T08:50:07;4.00;99.90
3846;DHT22;1938;50.812;7.738;2023-02-01T08:52:34;4.00;99.90
3846;DHT22;1938;50.812;7.738;2023-02-01T08:54:59;4.00;99.90
3846;DHT22;1938;50.812;7.738;2023-02-01T08:57:25;4.10;99.90
3846;DHT22;1938;50.812;7.738;2023-02-01T08:59:51;4.20;99.90
3846;DHT22;1938;50.812;7.738;2023-02-01T09:02:18;4.10;99.90
3846;DHT22;1938;50.812;7.738;2023-02-01T09:04:44;4.10;99.90
3846;DHT22;1938;50.812;7.738;2023-02-01T09:07:10;4.00;99.90
3846;DHT22;1938;50.812;7.738;2023-02-01T09:09:36;4.00;99.90
3846;DHT22;1938;50.812;7.738;2023-02-01T09:12:03;4.00;99.90
3846;DHT22;1938;50.812;7.738;2023-02-01T09:14:29;4.00;99.90
3846;DHT22;1938;50.812;7.738;2023-02-01T09:16:55;4.00;99.90
3846;DHT22;1938;50.812;7.738;2023-02-01T09:19:21;4.10;99.90
3846;DHT22;1938;50.812;7.738;2023-02-01T09:21:46;4.00;99.90
3846;DHT22;1938;50.812;7.738;2023-02-01T09:24:12;4.00;99.90
3846;DHT22;1938;50.812;7.738;2023-02-01T09:26:38;4.00;99.90
3846;DHT22;1938;50.812;7.738;2023-02-01T09:29:04;4.00;99.90
3846;DHT22;1938;50.812;7.738;2023-02-01T09:31:35;4.00;99.90
3846;DHT22;1938;50.812;7.738;2023-02-01T09:34:00;4.10;99.90
3846;DHT22;1938;50.812;7.738;2023-02-01T09:36:26;4.10;99.90
3846;DHT22;1938;50.812;7.738;2023-02-01T09:38:52;4.10;99.90
3846;DHT22;1938;50.812;7.738;2023-02-01T09:46:55;4.20;99.90
3846;DHT22;1938;50.812;7.738;2023-02-01T09:49:34;4.20;99.90
3846;DHT22;1938;50.812;7.738;2023-02-01T09:52:04;4.20;99.90
3846;DHT22;1938;50.812;7.738;2023-02-01T09:54:52;4.20;99.90
3846;DHT22;1938;50.812;7.738;2023-02-01T09:57:51;4.10;99.90
3846;DHT22;1938;50.812;7.738;2023-02-01T10:00:39;4.20;99.90
3846;DHT22;1938;50.812;7.738;2023-02-01T10:03:11;4.30;99.90
3846;DHT22;1938;50.812;7.738;2023-02-01T10:06:20;4.40;99.90
3846;DHT22;1938;50.812;7.738;2023-02-01T10:09:09;4.40;99.90
3846;DHT22;1938;50.812;7.738;2023-02-01T10:12:22;4.30;99.90
3846;DHT22;1938;50.812;7.738;2023-02-01T10:17:25;4.40;99.90
3846;DHT22;1938;50.812;7.738;2023-02-01T10:23:10;4.40;58.30
3846;DHT22;1938;50.812;7.738;2023-02-01T10:26:08;4.50;99.90
3846;DHT22;1938;50.812;7.738;2023-02-01T10:28:38;4.70;76.80
3846;DHT22;1938;50.812;7.738;2023-02-01T10:31:05;4.80;92.80
3846;DHT22;1938;50.812;7.738;2023-02-01T10:33:36;4.90;1.00
3846;DHT22;1938;50.812;7.738;2023-02-01T10:36:25;5.00;1.00
3846;DHT22;1938;50.812;7.738;2023-02-01T10:38:53;5.00;99.90
3846;DHT22;1938;50.812;7.738;2023-02-01T10:41:26;5.10;99.90
3846;DHT22;1938;50.812;7.738;2023-02-01T10:43:57;5.10;99.90
3846;DHT22;1938;50.812;7.738;2023-02-01T10:46:24;5.00;88.40
3846;DHT22;1938;50.812;7.738;2023-02-01T10:48:53;5.00;99.90
3846;DHT22;1938;50.812;7.738;2023-02-01T10:51:24;5.10;99.90
3846;DHT22;1938;50.812;7.738;2023-02-01T10:53:58;5.10;99.90
3846;DHT22;1938;50.812;7.738;2023-02-01T10:56:27;5.20;99.90
3846;DHT22;1938;50.812;7.738;2023-02-01T10:59:01;5.10;1.00
3846;DHT22;1938;50.812;7.738;2023-02-01T11:01:36;5.10;1.00
3846;DHT22;1938;50.812;7.738;2023-02-01T11:04:09;5.20;99.90
3846;DHT22;1938;50.812;7.738;2023-02-01T11:06:46;5.20;48.90
3846;DHT22;1938;50.812;7.738;2023-02-01T11:09:24;5.20;86.90
3846;DHT22;1938;50.812;7.738;2023-02-01T11:16:55;5.30;1.00
3846;DHT22;1938;50.812;7.738;2023-02-01T11:19:21;5.40;1.00
3846;DHT22;1938;50.812;7.738;2023-02-01T11:21:57;5.40;1.00
3846;DHT22;1938;50.812;7.738;2023-02-01T11:24:33;5.50;99.90
3846;DHT22;1938;50.812;7.738;2023-02-01T11:27:03;5.50;1.00
3846;DHT22;1938;50.812;7.738;2023-02-01T11:29:40;5.50;99.90
3846;DHT22;1938;50.812;7.738;2023-02-01T11:32:08;5.50;44.80
3846;DHT22;1938;50.812;7.738;2023-02-01T11:34:51;5.50;99.90
3846;DHT22;1938;50.812;7.738;2023-02-01T11:37:38;5.50;99.90
3846;DHT22;1938;50.812;7.738;2023-02-01T11:40:27;5.40;18.50
3846;DHT22;1938;50.812;7.738;2023-02-01T11:47:53;5.10;13.10
3846;DHT22;1938;50.812;7.738;2023-02-01T11:53:38;5.00;29.00
3846;DHT22;1938;50.812;7.738;2023-02-01T12:04:44;4.90;99.90
3846;DHT22;1938;50.812;7.738;2023-02-01T12:07:48;4.80;1.00
3846;DHT22;1938;50.812;7.738;2023-02-01T12:16:28;4.90;1.00
3846;DHT22;1938;50.812;7.738;2023-02-01T12:30:13;5.00;99.90
3846;DHT22;1938;50.812;7.738;2023-02-01T12:36:16;5.10;1.00
3846;DHT22;1938;50.812;7.738;2023-02-01T12:39:07;5.20;99.90
3846;DHT22;1938;50.812;7.738;2023-02-01T12:47:09;5.20;99.90
3846;DHT22;1938;50.812;7.738;2023-02-01T12:49:58;5.10;99.90
3846;DHT22;1938;50.812;7.738;2023-02-01T12:55:36;5.00;1.00
3846;DHT22;1938;50.812;7.738;2023-02-01T13:01:03;5.00;1.00
3846;DHT22;1938;50.812;7.738;2023-02-01T13:06:16;5.10;99.90
3846;DHT22;1938;50.812;7.738;2023-02-01T13:08:56;5.00;61.70
3846;DHT22;1938;50.812;7.738;2023-02-01T13:11:35;5.10;23.90
3846;DHT22;1938;50.812;7.738;2023-02-01T13:14:34;5.10;99.90
3846;DHT22;1938;50.812;7.738;2023-02-01T13:17:21;5.10;96.20
3846;DHT22;1938;50.812;7.738;2023-02-01T13:20:03;5.10;99.90
3846;DHT22;1938;50.812;7.738;2023-02-01T13:22:40;5.10;1.00
3846;DHT22;1938;50.812;7.738;2023-02-01T13:25:16;5.10;99.90
3846;DHT22;1938;50.812;7.738;2023-02-01T13:27:43;5.10;1.00
3846;DHT22;1938;50.812;7.738;2023-02-01T13:38:14;5.10;1.00
3846;DHT22;1938;50.812;7.738;2023-02-01T13:40:56;5.00;1.00
3846;DHT22;1938;50.812;7.738;2023-02-01T13:43:31;4.90;1.00
3846;DHT22;1938;50.812;7.738;2023-02-01T13:46:03;4.80;99.90
3846;DHT22;1938;50.812;7.738;2023-02-01T13:48:51;4.60;1.00
3846;DHT22;1938;50.812;7.738;2023-02-01T13:51:50;4.60;8.10
3846;DHT22;1938;50.812;7.738;2023-02-01T13:54:37;4.60;7.20
3846;DHT22;1938;50.812;7.738;2023-02-01T13:57:06;4.60;1.00
3846;DHT22;1938;50.812;7.738;2023-02-01T14:10:49;4.60;99.90
3846;DHT22;1938;50.812;7.738;2023-02-01T14:13:37;4.60;99.90
3846;DHT22;1938;50.812;7.738;2023-02-01T14:32:18;4.50;99.90
3846;DHT22;1938;50.812;7.738;2023-02-01T14:50:33;4.60;99.90
3846;DHT22;1938;50.812;7.738;2023-02-01T15:01:30;4.70;99.90
3846;DHT22;1938;50.812;7.738;2023-02-01T15:04:08;4.70;99.90
3846;DHT22;1938;50.812;7.738;2023-02-01T15:06:39;4.70;50.50
3846;DHT22;1938;50.812;7.738;2023-02-01T15:09:18;4.80;21.10
3846;DHT22;1938;50.812;7.738;2023-02-01T15:11:54;4.80;9.10
3846;DHT22;1938;50.812;7.738;2023-02-01T15:14:20;4.80;1.00
3846;DHT22;1938;50.812;7.738;2023-02-01T15:16:46;4.90;1.00
3846;DHT22;1938;50.812;7.738;2023-02-01T15:19:23;4.90;1.00
3846;DHT22;1938;50.812;7.738;2023-02-01T15:21:51;4.90;1.00
3846;DHT22;1938;50.812;7.738;2023-02-01T15:24:26;4.90;1.30
3846;DHT22;1938;50.812;7.738;2023-02-01T15:26:53;4.90;1.00
3846;DHT22;1938;50.812;7.738;2023-02-01T15:29:20;4.90;1.90
3846;DHT22;1938;50.812;7.738;2023-02-01T15:31:48;5.00;38.50
3846;DHT22;1938;50.812;7.738;2023-02-01T15:34:14;4.90;98.60
3846;DHT22;1938;50.812;7.738;2023-02-01T15:36:41;4.90;23.60
3846;DHT22;1938;50.812;7.738;2023-02-01T15:39:19;4.90;1.00
3846;DHT22;1938;50.812;7.738;2023-02-01T15:41:51;4.90;49.90
3846;DHT22;1938;50.812;7.738;2023-02-01T15:46:49;4.90;25.20
3846;DHT22;1938;50.812;7.738;2023-02-01T15:49:24;4.90;40.40
3846;DHT22;1938;50.812;7.738;2023-02-01T15:51:50;4.90;35.50
3846;DHT22;1938;50.812;7.738;2023-02-01T15:54:28;4.90;92.90
3846;DHT22;1938;50.812;7.738;2023-02-01T15:56:58;4.90;95.60
3846;DHT22;1938;50.812;7.738;2023-02-01T15:59:40;4.90;99.90
3846;DHT22;1938;50.812;7.738;2023-02-01T16:02:29;4.80;99.90
3846;DHT22;1938;50.812;7.738;2023-02-01T16:04:59;4.60;99.90
3846;DHT22;1938;50.812;7.738;2023-02-01T16:07:28;4.60;99.90
3846;DHT22;1938;50.812;7.738;2023-02-01T16:09:57;4.50;99.90
3846;DHT22;1938;50.812;7.738;2023-02-01T16:12:34;4.50;99.90
3846;DHT22;1938;50.812;7.738;2023-02-01T16:15:02;4.40;99.90
3846;DHT22;1938;50.812;7.738;2023-02-01T16:17:27;4.50;99.90
3846;DHT22;1938;50.812;7.738;2023-02-01T16:19:53;4.50;99.90
3846;DHT22;1938;50.812;7.738;2023-02-01T16:22:18;4.50;99.90
3846;DHT22;1938;50.812;7.738;2023-02-01T16:24:44;4.60;99.90
3846;DHT22;1938;50.812;7.738;2023-02-01T16:27:10;4.70;99.90
3846;DHT22;1938;50.812;7.738;2023-02-01T16:29:35;4.80;99.90
3846;DHT22;1938;50.812;7.738;2023-02-01T16:32:02;4.90;99.90
3846;DHT22;1938;50.812;7.738;2023-02-01T16:34:29;4.90;99.90
3846;DHT22;1938;50.812;7.738;2023-02-01T16:36:55;5.00;99.90
3846;DHT22;1938;50.812;7.738;2023-02-01T16:39:22;5.00;99.90
3846;DHT22;1938;50.812;7.738;2023-02-01T16:41:49;5.10;99.90
3846;DHT22;1938;50.812;7.738;2023-02-01T16:44:16;5.10;99.90
3846;DHT22;1938;50.812;7.738;2023-02-01T16:46:43;5.20;99.90
3846;DHT22;1938;50.812;7.738;2023-02-01T16:49:22;5.20;99.90
3846;DHT22;1938;50.812;7.738;2023-02-01T16:51:50;5.20;99.90
3846;DHT22;1938;50.812;7.738;2023-02-01T16:54:18;5.20;99.90
3846;DHT22;1938;50.812;7.738;2023-02-01T16:56:45;5.20;99.90
3846;DHT22;1938;50.812;7.738;2023-02-01T16:59:11;5.20;99.90
3846;DHT22;1938;50.812;7.738;2023-02-01T17:01:37;5.20;99.90
3846;DHT22;1938;50.812;7.738;2023-02-01T17:04:03;5.10;99.90
3846;DHT22;1938;50.812;7.738;2023-02-01T17:06:30;5.10;99.90
3846;DHT22;1938;50.812;7.738;2023-02-01T17:08:58;5.00;99.90
3846;DHT22;1938;50.812;7.738;2023-02-01T17:11:24;5.00;99.90
3846;DHT22;1938;50.812;7.738;2023-02-01T17:13:50;5.00;99.90
3846;DHT22;1938;50.812;7.738;2023-02-01T17:16:27;5.10;99.90
3846;DHT22;1938;50.812;7.738;2023-02-01T17:19:03;5.00;99.90
3846;DHT22;1938;50.812;7.738;2023-02-01T17:21:38;5.00;99.90
3846;DHT22;1938;50.812;7.738;2023-02-01T17:24:05;5.00;99.90
3846;DHT22;1938;50.812;7.738;2023-02-01T17:26:30;5.00;99.90
3846;DHT22;1938;50.812;7.738;2023-02-01T17:28:57;5.00;99.90
3846;DHT22;1938;50.812;7.738;2023-02-01T17:31:22;5.00;99.90
3846;DHT22;1938;50.812;7.738;2023-02-01T17:33:49;5.00;99.90
3846;DHT22;1938;50.812;7.738;2023-02-01T17:36:16;5.00;99.90
3846;DHT22;1938;50.812;7.738;2023-02-01T17:38:42;5.00;99.90
3846;DHT22;1938;50.812;7.738;2023-02-01T17:41:13;5.10;99.90
3846;DHT22;1938;50.812;7.738;2023-02-01T17:43:38;5.10;99.90
3846;DHT22;1938;50.812;7.738;2023-02-01T17:46:14;5.00;99.90
3846;DHT22;1938;50.812;7.738;2023-02-01T17:48:40;5.00;99.90
3846;DHT22;1938;50.812;7.738;2023-02-01T17:51:18;5.00;99.90
3846;DHT22;1938;50.812;7.738;2023-02-01T17:53:45;5.00;99.90
3846;DHT22;1938;50.812;7.738;2023-02-01T17:56:13;4.80;99.90
3846;DHT22;1938;50.812;7.738;2023-02-01T17:58:39;4.70;99.90
3846;DHT22;1938;50.812;7.738;2023-02-01T18:01:05;4.60;99.90
3846;DHT22;1938;50.812;7.738;2023-02-01T18:03:31;4.50;99.90
3846;DHT22;1938;50.812;7.738;2023-02-01T18:06:00;4.50;99.90
3846;DHT22;1938;50.812;7.738;2023-02-01T18:08:29;4.50;99.90
3846;DHT22;1938;50.812;7.738;2023-02-01T18:11:00;4.50;99.90
3846;DHT22;1938;50.812;7.738;2023-02-01T18:13:30;4.50;99.90
3846;DHT22;1938;50.812;7.738;2023-02-01T18:15:57;4.50;99.90
3846;DHT22;1938;50.812;7.738;2023-02-01T18:18:28;4.50;99.90
3846;DHT22;1938;50.812;7.738;2023-02-01T18:20:55;4.50;99.90
3846;DHT22;1938;50.812;7.738;2023-02-01T18:23:23;4.50;99.90
3846;DHT22;1938;50.812;7.738;2023-02-01T18:25:50;4.40;99.90
3846;DHT22;1938;50.812;7.738;2023-02-01T18:28:17;4.50;99.90
3846;DHT22;1938;50.812;7.738;2023-02-01T18:30:45;4.50;99.90
3846;DHT22;1938;50.812;7.738;2023-02-01T18:33:14;4.60;99.90
3846;DHT22;1938;50.812;7.738;2023-02-01T18:35:40;4.50;99.90
3846;DHT22;1938;50.812;7.738;2023-02-01T18:38:07;4.50;99.90
3846;DHT22;1938;50.812;7.738;2023-02-01T18:40:53;4.50;99.90
3846;DHT22;1938;50.812;7.738;2023-02-01T18:43:22;4.50;99.90
3846;DHT22;1938;50.812;7.738;2023-02-01T18:45:49;4.60;99.90
3846;DHT22;1938;50.812;7.738;2023-02-01T18:48:16;4.60;99.90
3846;DHT22;1938;50.812;7.738;2023-02-01T18:50:45;4.60;99.90
3846;DHT22;1938;50.812;7.738;2023-02-01T18:53:16;4.60;99.90
3846;DHT22;1938;50.812;7.738;2023-02-01T18:55:45;4.60;99.90
3846;DHT22;1938;50.812;7.738;2023-02-01T18:58:13;4.60;99.90
3846;DHT22;1938;50.812;7.738;2023-02-01T19:00:41;4.60;99.90
3846;DHT22;1938;50.812;7.738;2023-02-01T19:03:07;4.60;99.90
3846;DHT22;1938;50.812;7.738;2023-02-01T19:05:32;4.60;99.90
3846;DHT22;1938;50.812;7.738;2023-02-01T19:07:58;4.60;99.90
3846;DHT22;1938;50.812;7.738;2023-02-01T19:10:25;4.60;99.90
3846;DHT22;1938;50.812;7.738;2023-02-01T19:12:52;4.60;99.90
3846;DHT22;1938;50.812;7.738;2023-02-01T19:15:21;4.60;99.90
3846;DHT22;1938;50.812;7.738;2023-02-01T19:17:48;4.60;99.90